createdAt,value
2017-12-26T00:00:48.563Z,0
2017-12-26T00:01:48.837Z,0
2017-12-26T00:02:48.801Z,0
2017-12-26T00:03:48.891Z,0
2017-12-26T00:04:48.513Z,0
2017-12-26T00:05:49.046Z,0
2017-12-26T00:06:49.013Z,0
2017-12-26T00:07:48.727Z,0
2017-12-26T00:08:48.968Z,0
2017-12-26T00:09:48.970Z,0
2017-12-26T00:10:48.676Z,0
2017-12-26T00:11:48.674Z,0
2017-12-26T00:12:48.657Z,0
2017-12-26T00:13:48.892Z,0
2017-12-26T00:14:48.977Z,0
2017-12-26T00:15:48.322Z,0
2017-12-26T00:16:48.571Z,0
2017-12-26T00:17:48.566Z,0
2017-12-26T00:18:48.825Z,0
2017-12-26T00:19:48.509Z,0
2017-12-26T00:20:48.493Z,0
2017-12-26T00:21:48.230Z,0
2017-12-26T00:22:48.480Z,0
2017-12-26T00:23:48.191Z,0
2017-12-26T00:24:48.819Z,0
2017-12-26T00:25:48.473Z,0
2017-12-26T00:26:48.201Z,0
2017-12-26T00:27:48.150Z,0
2017-12-26T00:28:48.443Z,0
2017-12-26T00:29:48.678Z,0
2017-12-26T00:30:48.110Z,0
2017-12-26T00:31:48.377Z,0
2017-12-26T00:32:48.355Z,0
2017-12-26T00:33:48.599Z,0
2017-12-26T00:34:48.057Z,0
2017-12-26T00:35:48.317Z,0
2017-12-26T00:36:48.576Z,0
2017-12-26T00:37:48.013Z,0
2017-12-26T00:38:48.205Z,0
2017-12-26T00:39:48.492Z,0
2017-12-26T00:40:48.179Z,0
2017-12-26T00:41:48.428Z,0
2017-12-26T00:42:48.415Z,0
2017-12-26T00:43:48.133Z,0
2017-12-26T00:44:48.125Z,0
2017-12-26T00:45:48.102Z,0
2017-12-26T00:46:48.352Z,0
2017-12-26T00:47:48.573Z,0
2017-12-26T00:48:47.935Z,0
2017-12-26T00:49:48.246Z,0
2017-12-26T00:50:47.993Z,0
2017-12-26T00:51:47.861Z,0
2017-12-26T00:52:48.598Z,0
2017-12-26T00:53:48.154Z,0
2017-12-26T00:54:48.140Z,0
2017-12-26T00:55:47.883Z,0
2017-12-26T00:56:48.148Z,0
2017-12-26T00:57:47.815Z,0
2017-12-26T00:58:48.069Z,0
2017-12-26T00:59:48.162Z,0
2017-12-26T01:00:48.169Z,0
2017-12-26T01:01:47.857Z,0
2017-12-26T01:02:47.847Z,0
2017-12-26T01:03:48.081Z,0
2017-12-26T01:04:47.801Z,0
2017-12-26T01:05:47.519Z,0
2017-12-26T01:06:47.780Z,0
2017-12-26T01:07:47.758Z,0
2017-12-26T01:08:47.484Z,0
2017-12-26T01:09:47.446Z,0
2017-12-26T01:10:47.697Z,0
2017-12-26T01:11:47.700Z,0
2017-12-26T01:12:47.939Z,0
2017-12-26T01:13:47.974Z,0
2017-12-26T01:14:47.641Z,0
2017-12-26T01:15:47.627Z,0
2017-12-26T01:16:47.357Z,0
2017-12-26T01:17:47.869Z,0
2017-12-26T01:18:47.860Z,0
2017-12-26T01:19:47.568Z,0
2017-12-26T01:20:47.558Z,0
2017-12-26T01:21:47.542Z,0
2017-12-26T01:22:47.242Z,0
2017-12-26T01:23:47.494Z,0
2017-12-26T01:24:47.260Z,0
2017-12-26T01:25:47.194Z,0
2017-12-26T01:26:47.447Z,0
2017-12-26T01:27:47.159Z,0
2017-12-26T01:28:47.426Z,0
2017-12-26T01:29:47.128Z,0
2017-12-26T01:30:47.675Z,0
2017-12-26T01:31:47.635Z,0
2017-12-26T01:32:47.081Z,0
2017-12-26T01:33:47.343Z,0
2017-12-26T01:34:47.052Z,0
2017-12-26T01:35:47.586Z,0
2017-12-26T01:36:47.016Z,0
2017-12-26T01:37:47.003Z,0
2017-12-26T01:38:47.530Z,0
2017-12-26T01:39:47.525Z,0
2017-12-26T01:40:47.241Z,0
2017-12-26T01:41:46.933Z,0
2017-12-26T01:42:47.463Z,0
2017-12-26T01:43:46.903Z,0
2017-12-26T01:44:47.182Z,0
2017-12-26T01:45:47.436Z,0
2017-12-26T01:46:47.126Z,0
2017-12-26T01:47:47.379Z,0
2017-12-26T01:48:46.823Z,0
2017-12-26T01:49:47.109Z,0
2017-12-26T01:50:47.086Z,0
2017-12-26T01:51:47.328Z,0
2017-12-26T01:52:46.758Z,0
2017-12-26T01:53:46.747Z,0
2017-12-26T01:54:47.000Z,0
2017-12-26T01:55:46.726Z,0
2017-12-26T01:56:47.251Z,0
2017-12-26T01:57:46.952Z,0
2017-12-26T01:58:46.956Z,0
2017-12-26T01:59:46.921Z,0
2017-12-26T02:00:46.634Z,0
2017-12-26T02:01:47.383Z,0
2017-12-26T02:02:47.143Z,0
2017-12-26T02:03:47.145Z,0
2017-12-26T02:04:46.586Z,0
2017-12-26T02:05:47.093Z,0
2017-12-26T02:06:46.813Z,0
2017-12-26T02:07:46.521Z,0
2017-12-26T02:08:46.514Z,0
2017-12-26T02:09:46.486Z,0
2017-12-26T02:10:47.020Z,0
2017-12-26T02:11:47.002Z,0
2017-12-26T02:12:46.999Z,0
2017-12-26T02:13:46.694Z,0
2017-12-26T02:14:46.711Z,0
2017-12-26T02:15:46.939Z,0
2017-12-26T02:16:46.658Z,0
2017-12-26T02:17:46.929Z,0
2017-12-26T02:18:46.887Z,0
2017-12-26T02:19:46.601Z,0
2017-12-26T02:20:47.135Z,0
2017-12-26T02:21:47.113Z,0
2017-12-26T02:22:46.299Z,0
2017-12-26T02:23:46.269Z,0
2017-12-26T02:24:46.843Z,0
2017-12-26T02:25:46.507Z,0
2017-12-26T02:26:46.513Z,0
2017-12-26T02:27:46.742Z,0
2017-12-26T02:28:46.186Z,0
2017-12-26T02:29:46.446Z,0
2017-12-26T02:30:46.153Z,0
2017-12-26T02:31:46.413Z,0
2017-12-26T02:32:46.679Z,0
2017-12-26T02:33:46.382Z,0
2017-12-26T02:34:46.639Z,0
2017-12-26T02:35:46.075Z,0
2017-12-26T02:36:46.065Z,0
2017-12-26T02:37:46.607Z,0
2017-12-26T02:38:46.028Z,0
2017-12-26T02:39:46.013Z,0
2017-12-26T02:40:46.550Z,0
2017-12-26T02:41:45.983Z,0
2017-12-26T02:42:46.509Z,0
2017-12-26T02:43:45.951Z,0
2017-12-26T02:44:46.554Z,0
2017-12-26T02:45:45.918Z,0
2017-12-26T02:46:46.452Z,0
2017-12-26T02:47:46.174Z,0
2017-12-26T02:48:46.142Z,0
2017-12-26T02:49:46.149Z,0
2017-12-26T02:50:46.410Z,0
2017-12-26T02:51:46.110Z,0
2017-12-26T02:52:46.352Z,0
2017-12-26T02:53:46.097Z,0
2017-12-26T02:54:45.780Z,0
2017-12-26T02:55:46.591Z,0
2017-12-26T02:56:45.748Z,0
2017-12-26T02:57:45.743Z,0
2017-12-26T02:58:46.020Z,0
2017-12-26T02:59:46.262Z,0
2017-12-26T03:00:46.526Z,0
2017-12-26T03:01:46.213Z,0
2017-12-26T03:02:45.933Z,0
2017-12-26T03:03:45.918Z,0
2017-12-26T03:04:46.161Z,0
2017-12-26T03:05:45.887Z,0
2017-12-26T03:06:46.128Z,0
2017-12-26T03:07:45.840Z,0
2017-12-26T03:08:46.145Z,0
2017-12-26T03:09:46.086Z,0
2017-12-26T03:10:45.814Z,0
2017-12-26T03:11:46.325Z,0
2017-12-26T03:12:45.764Z,0
2017-12-26T03:13:46.018Z,0
2017-12-26T03:14:46.020Z,0
2017-12-26T03:15:45.716Z,0
2017-12-26T03:16:45.428Z,0
2017-12-26T03:17:45.427Z,0
2017-12-26T03:18:45.950Z,0
2017-12-26T03:19:45.670Z,0
2017-12-26T03:20:45.366Z,0
2017-12-26T03:21:45.371Z,0
2017-12-26T03:22:45.604Z,0
2017-12-26T03:23:45.595Z,0
2017-12-26T03:24:45.312Z,0
2017-12-26T03:25:45.286Z,0
2017-12-26T03:26:45.284Z,0
2017-12-26T03:27:45.528Z,0
2017-12-26T03:28:45.783Z,0
2017-12-26T03:29:45.227Z,0
2017-12-26T03:30:45.775Z,0
2017-12-26T03:31:45.469Z,0
2017-12-26T03:32:45.178Z,0
2017-12-26T03:33:45.190Z,0
2017-12-26T03:34:45.709Z,0
2017-12-26T03:35:45.676Z,0
2017-12-26T03:36:45.936Z,0
2017-12-26T03:37:45.374Z,0
2017-12-26T03:38:45.098Z,0
2017-12-26T03:39:45.336Z,0
2017-12-26T03:40:45.598Z,0
2017-12-26T03:41:45.318Z,0
2017-12-26T03:42:45.020Z,0
2017-12-26T03:43:45.275Z,0
2017-12-26T03:44:45.258Z,0
2017-12-26T03:45:45.246Z,0
2017-12-26T03:46:44.954Z,0
2017-12-26T03:47:45.268Z,0
2017-12-26T03:48:45.198Z,0
2017-12-26T03:49:45.496Z,0
2017-12-26T03:50:44.955Z,0
2017-12-26T03:51:45.149Z,0
2017-12-26T03:52:45.133Z,0
2017-12-26T03:53:45.120Z,0
2017-12-26T03:54:44.829Z,0
2017-12-26T03:55:45.101Z,0
2017-12-26T03:56:44.812Z,0
2017-12-26T03:57:45.052Z,0
2017-12-26T03:58:45.145Z,0
2017-12-26T03:59:45.292Z,0
2017-12-26T04:00:45.558Z,0
2017-12-26T04:01:44.734Z,0
2017-12-26T04:02:45.252Z,0
2017-12-26T04:03:45.230Z,0
2017-12-26T04:04:44.670Z,0
2017-12-26T04:05:45.221Z,0
2017-12-26T04:06:44.706Z,0
2017-12-26T04:07:44.901Z,0
2017-12-26T04:08:45.149Z,0
2017-12-26T04:09:44.592Z,0
2017-12-26T04:10:45.132Z,0
2017-12-26T04:11:45.114Z,0
2017-12-26T04:12:44.830Z,0
2017-12-26T04:13:45.074Z,0
2017-12-26T04:14:44.788Z,0
2017-12-26T04:15:44.783Z,0
2017-12-26T04:16:44.489Z,0
2017-12-26T04:17:44.480Z,0
2017-12-26T04:18:44.454Z,0
2017-12-26T04:19:44.704Z,0
2017-12-26T04:20:44.436Z,0
2017-12-26T04:21:44.407Z,0
2017-12-26T04:22:44.659Z,0
2017-12-26T04:23:44.389Z,0
2017-12-26T04:24:44.355Z,0
2017-12-26T04:25:44.345Z,0
2017-12-26T04:26:44.874Z,0
2017-12-26T04:27:44.307Z,0
2017-12-26T04:28:44.563Z,0
2017-12-26T04:29:44.557Z,0
2017-12-26T04:30:44.531Z,0
2017-12-26T04:31:44.512Z,0
2017-12-26T04:32:44.501Z,0
2017-12-26T04:33:45.040Z,0
2017-12-26T04:34:44.208Z,0
2017-12-26T04:35:44.452Z,0
2017-12-26T04:36:44.707Z,0
2017-12-26T04:37:44.418Z,0
2017-12-26T04:38:44.414Z,0
2017-12-26T04:39:44.134Z,0
2017-12-26T04:40:44.379Z,0
2017-12-26T04:41:44.629Z,0
2017-12-26T04:42:44.091Z,0
2017-12-26T04:43:44.079Z,0
2017-12-26T04:44:44.309Z,0
2017-12-26T04:45:44.019Z,0
2017-12-26T04:46:44.293Z,0
2017-12-26T04:47:43.991Z,0
2017-12-26T04:48:44.247Z,0
2017-12-26T04:49:44.240Z,0
2017-12-26T04:50:43.947Z,0
2017-12-26T04:51:44.737Z,0
2017-12-26T04:52:44.187Z,0
2017-12-26T04:53:43.891Z,0
2017-12-26T04:54:44.187Z,0
2017-12-26T04:55:43.892Z,0
2017-12-26T04:56:43.845Z,0
2017-12-26T04:57:43.828Z,0
2017-12-26T04:58:44.098Z,0
2017-12-26T04:59:44.338Z,0
2017-12-26T05:00:43.794Z,0
2017-12-26T05:01:44.044Z,0
2017-12-26T05:02:43.754Z,0
2017-12-26T05:03:44.006Z,0
2017-12-26T05:04:43.994Z,0
2017-12-26T05:05:43.720Z,0
2017-12-26T05:06:44.257Z,0
2017-12-26T05:07:44.217Z,0
2017-12-26T05:08:44.208Z,0
2017-12-26T05:09:43.668Z,0
2017-12-26T05:10:43.933Z,0
2017-12-26T05:11:43.878Z,0
2017-12-26T05:12:43.592Z,0
2017-12-26T05:13:43.602Z,0
2017-12-26T05:14:43.884Z,0
2017-12-26T05:15:43.819Z,0
2017-12-26T05:16:43.530Z,0
2017-12-26T05:17:43.784Z,0
2017-12-26T05:18:44.090Z,0
2017-12-26T05:19:43.753Z,0
2017-12-26T05:20:43.767Z,0
2017-12-26T05:21:43.453Z,0
2017-12-26T05:22:44.258Z,0
2017-12-26T05:23:43.694Z,0
2017-12-26T05:24:43.684Z,0
2017-12-26T05:25:43.388Z,0
2017-12-26T05:26:43.721Z,0
2017-12-26T05:27:44.185Z,0
2017-12-26T05:28:43.637Z,0
2017-12-26T05:29:43.597Z,0
2017-12-26T05:30:43.598Z,0
2017-12-26T05:31:43.577Z,0
2017-12-26T05:32:43.570Z,0
2017-12-26T05:33:43.536Z,0
2017-12-26T05:34:43.259Z,0
2017-12-26T05:35:43.784Z,0
2017-12-26T05:36:43.493Z,0
2017-12-26T05:37:43.547Z,0
2017-12-26T05:38:43.738Z,0
2017-12-26T05:39:43.449Z,0
2017-12-26T05:40:43.980Z,0
2017-12-26T05:41:43.411Z,0
2017-12-26T05:42:43.124Z,0
2017-12-26T05:43:43.109Z,0
2017-12-26T05:44:43.375Z,0
2017-12-26T05:45:43.620Z,0
2017-12-26T05:46:43.062Z,0
2017-12-26T05:47:43.604Z,0
2017-12-26T05:48:43.354Z,0
2017-12-26T05:49:43.591Z,0
2017-12-26T05:50:43.276Z,0
2017-12-26T05:51:43.577Z,0
2017-12-26T05:52:43.245Z,0
2017-12-26T05:53:43.498Z,0
2017-12-26T05:54:43.503Z,0
2017-12-26T05:55:42.924Z,0
2017-12-26T05:56:43.482Z,0
2017-12-26T05:57:43.182Z,0
2017-12-26T05:58:43.156Z,0
2017-12-26T05:59:42.877Z,0
2017-12-26T06:00:43.142Z,0
2017-12-26T06:01:43.678Z,0
2017-12-26T06:02:43.409Z,0
2017-12-26T06:03:43.366Z,0
2017-12-26T06:04:42.786Z,0
2017-12-26T06:05:42.772Z,0
2017-12-26T06:06:43.301Z,0
2017-12-26T06:07:43.564Z,0
2017-12-26T06:08:43.552Z,0
2017-12-26T06:09:42.713Z,0
2017-12-26T06:10:42.972Z,0
2017-12-26T06:11:43.233Z,0
2017-12-26T06:12:42.667Z,0
2017-12-26T06:13:42.674Z,0
2017-12-26T06:14:42.632Z,0
2017-12-26T06:15:42.623Z,0
2017-12-26T06:16:42.625Z,0
2017-12-26T06:17:42.862Z,0
2017-12-26T06:18:42.585Z,0
2017-12-26T06:19:42.563Z,0
2017-12-26T06:20:43.128Z,0
2017-12-26T06:21:43.087Z,0
2017-12-26T06:22:42.784Z,0
2017-12-26T06:23:42.499Z,0
2017-12-26T06:24:42.484Z,0
2017-12-26T06:25:43.017Z,0
2017-12-26T06:26:42.456Z,0
2017-12-26T06:27:42.980Z,0
2017-12-26T06:28:42.966Z,0
2017-12-26T06:29:42.408Z,0
2017-12-26T06:30:42.666Z,0
2017-12-26T06:31:42.691Z,0
2017-12-26T06:32:42.632Z,0
2017-12-26T06:33:42.346Z,4
2017-12-26T06:34:42.877Z,0
2017-12-26T06:35:42.324Z,0
2017-12-26T06:36:42.308Z,0
2017-12-26T06:37:42.349Z,4
2017-12-26T06:38:42.306Z,4
2017-12-26T06:39:43.097Z,4
2017-12-26T06:40:42.244Z,4
2017-12-26T06:41:42.521Z,4
2017-12-26T06:42:42.488Z,4
2017-12-26T06:43:42.469Z,4
2017-12-26T06:44:42.739Z,8
2017-12-26T06:45:42.724Z,8
2017-12-26T06:46:42.426Z,12
2017-12-26T06:47:42.411Z,12
2017-12-26T06:48:42.431Z,12
2017-12-26T06:49:42.654Z,16
2017-12-26T06:50:42.377Z,16
2017-12-26T06:51:42.086Z,20
2017-12-26T06:52:42.083Z,24
2017-12-26T06:53:42.321Z,28
2017-12-26T06:54:42.309Z,32
2017-12-26T06:55:42.293Z,36
2017-12-26T06:56:42.274Z,40
2017-12-26T06:57:42.259Z,44
2017-12-26T06:58:41.972Z,52
2017-12-26T06:59:42.275Z,56
2017-12-26T07:00:42.486Z,64
2017-12-26T07:01:42.197Z,68
2017-12-26T07:02:42.180Z,76
2017-12-26T07:03:42.642Z,84
2017-12-26T07:04:41.893Z,96
2017-12-26T07:05:42.135Z,104
2017-12-26T07:06:42.394Z,116
2017-12-26T07:07:42.114Z,128
2017-12-26T07:08:42.418Z,140
2017-12-26T07:09:41.805Z,152
2017-12-26T07:10:42.337Z,168
2017-12-26T07:11:42.050Z,180
2017-12-26T07:12:42.321Z,196
2017-12-26T07:13:42.073Z,208
2017-12-26T07:14:42.001Z,224
2017-12-26T07:15:42.254Z,240
2017-12-26T07:16:41.980Z,252
2017-12-26T07:17:41.680Z,272
2017-12-26T07:18:41.690Z,288
2017-12-26T07:19:41.945Z,308
2017-12-26T07:20:41.925Z,324
2017-12-26T07:21:41.921Z,340
2017-12-26T07:22:41.886Z,356
2017-12-26T07:23:41.859Z,372
2017-12-26T07:24:41.593Z,388
2017-12-26T07:25:42.385Z,404
2017-12-26T07:26:42.086Z,420
2017-12-26T07:27:41.623Z,424
2017-12-26T07:28:41.511Z,432
2017-12-26T07:29:41.496Z,436
2017-12-26T07:30:41.762Z,436
2017-12-26T07:31:42.007Z,444
2017-12-26T07:32:41.463Z,452
2017-12-26T07:33:41.991Z,464
2017-12-26T07:34:41.419Z,468
2017-12-26T07:35:42.311Z,472
2017-12-26T07:36:41.657Z,488
2017-12-26T07:37:41.647Z,500
2017-12-26T07:38:41.626Z,508
2017-12-26T07:39:41.352Z,524
2017-12-26T07:40:41.322Z,536
2017-12-26T07:41:41.306Z,552
2017-12-26T07:42:42.136Z,564
2017-12-26T07:43:41.588Z,568
2017-12-26T07:44:41.552Z,576
2017-12-26T07:45:41.804Z,588
2017-12-26T07:46:41.235Z,624
2017-12-26T07:47:42.030Z,668
2017-12-26T07:48:41.203Z,692
2017-12-26T07:49:41.473Z,716
2017-12-26T07:50:41.175Z,732
2017-12-26T07:51:41.425Z,736
2017-12-26T07:52:41.137Z,748
2017-12-26T07:53:41.695Z,756
2017-12-26T07:54:41.128Z,772
2017-12-26T07:55:41.673Z,808
2017-12-26T07:56:41.279Z,840
2017-12-26T07:57:41.628Z,872
2017-12-26T07:58:41.592Z,908
2017-12-26T07:59:41.034Z,944
2017-12-26T08:00:41.014Z,988
2017-12-26T08:01:41.544Z,1028
2017-12-26T08:02:41.544Z,1088
2017-12-26T08:03:40.967Z,1140
2017-12-26T08:04:41.269Z,1168
2017-12-26T08:05:41.216Z,1160
2017-12-26T08:06:41.477Z,1156
2017-12-26T08:07:40.914Z,1164
2017-12-26T08:08:40.905Z,1192
2017-12-26T08:09:41.151Z,1232
2017-12-26T08:10:41.132Z,1276
2017-12-26T08:11:40.853Z,1300
2017-12-26T08:12:40.833Z,1332
2017-12-26T08:13:41.371Z,1412
2017-12-26T08:14:40.805Z,1464
2017-12-26T08:15:41.122Z,1516
2017-12-26T08:16:41.097Z,1512
2017-12-26T08:17:41.080Z,1524
2017-12-26T08:18:40.750Z,1536
2017-12-26T08:19:41.270Z,1552
2017-12-26T08:20:40.987Z,1616
2017-12-26T08:21:41.256Z,1672
2017-12-26T08:22:40.955Z,1784
2017-12-26T08:23:40.950Z,1916
2017-12-26T08:24:41.198Z,2032
2017-12-26T08:25:40.641Z,2084
2017-12-26T08:26:40.910Z,2124
2017-12-26T08:27:40.612Z,2140
2017-12-26T08:28:40.621Z,2124
2017-12-26T08:29:40.857Z,2200
2017-12-26T08:30:40.839Z,2488
2017-12-26T08:31:40.551Z,2608
2017-12-26T08:32:41.092Z,2644
2017-12-26T08:33:40.534Z,2656
2017-12-26T08:34:40.778Z,2648
2017-12-26T08:35:40.765Z,2696
2017-12-26T08:36:40.474Z,2776
2017-12-26T08:37:41.301Z,2824
2017-12-26T08:38:40.468Z,2772
2017-12-26T08:39:40.703Z,2836
2017-12-26T08:40:41.168Z,2884
2017-12-26T08:41:40.452Z,2924
2017-12-26T08:42:40.670Z,2924
2017-12-26T08:43:40.664Z,2908
2017-12-26T08:44:40.629Z,2924
2017-12-26T08:45:40.349Z,2928
2017-12-26T08:46:40.601Z,2952
2017-12-26T08:47:40.876Z,2976
2017-12-26T08:48:40.321Z,2988
2017-12-26T08:49:40.854Z,2988
2017-12-26T08:50:40.833Z,3000
2017-12-26T08:51:40.820Z,3008
2017-12-26T08:52:40.515Z,3012
2017-12-26T08:53:40.229Z,2956
2017-12-26T08:54:40.224Z,2884
2017-12-26T08:55:40.470Z,2840
2017-12-26T08:56:40.188Z,2820
2017-12-26T08:57:40.720Z,2876
2017-12-26T08:58:40.703Z,2928
2017-12-26T08:59:40.412Z,2968
2017-12-26T09:00:40.671Z,2960
2017-12-26T09:01:40.657Z,2932
2017-12-26T09:02:40.096Z,2952
2017-12-26T09:03:40.625Z,2984
2017-12-26T09:04:40.077Z,2984
2017-12-26T09:05:40.606Z,2948
2017-12-26T09:06:40.352Z,2880
2017-12-26T09:07:40.301Z,2856
2017-12-26T09:08:40.013Z,2844
2017-12-26T09:09:39.997Z,2816
2017-12-26T09:10:39.983Z,2792
2017-12-26T09:11:40.271Z,2720
2017-12-26T09:12:39.957Z,2688
2017-12-26T09:13:39.963Z,2664
2017-12-26T09:14:39.929Z,2632
2017-12-26T09:15:39.912Z,2544
2017-12-26T09:16:40.459Z,2452
2017-12-26T09:17:40.783Z,2356
2017-12-26T09:18:40.140Z,2316
2017-12-26T09:19:40.689Z,2260
2017-12-26T09:20:40.380Z,2200
2017-12-26T09:21:39.822Z,2140
2017-12-26T09:22:40.124Z,2088
2017-12-26T09:23:39.832Z,2020
2017-12-26T09:24:40.062Z,1920
2017-12-26T09:25:39.786Z,1936
2017-12-26T09:26:40.028Z,1912
2017-12-26T09:27:40.017Z,1956
2017-12-26T09:28:39.738Z,1968
2017-12-26T09:29:39.714Z,1972
2017-12-26T09:30:39.973Z,1972
2017-12-26T09:31:39.961Z,1992
2017-12-26T09:32:39.676Z,1968
2017-12-26T09:33:39.670Z,1960
2017-12-26T09:34:39.913Z,2000
2017-12-26T09:35:39.627Z,2000
2017-12-26T09:36:39.902Z,1956
2017-12-26T09:37:39.601Z,1908
2017-12-26T09:38:40.161Z,1948
2017-12-26T09:39:39.572Z,1980
2017-12-26T09:40:39.836Z,1964
2017-12-26T09:41:40.092Z,1928
2017-12-26T09:42:39.805Z,1880
2017-12-26T09:43:39.784Z,1848
2017-12-26T09:44:39.773Z,1816
2017-12-26T09:45:39.759Z,1812
2017-12-26T09:46:40.359Z,1804
2017-12-26T09:47:40.399Z,1784
2017-12-26T09:48:39.558Z,1772
2017-12-26T09:49:39.850Z,1752
2017-12-26T09:50:40.097Z,1760
2017-12-26T09:51:40.049Z,1752
2017-12-26T09:52:39.660Z,1740
2017-12-26T09:53:39.777Z,1736
2017-12-26T09:54:40.066Z,1728
2017-12-26T09:55:39.845Z,1732
2017-12-26T09:56:40.254Z,1732
2017-12-26T09:57:39.979Z,1720
2017-12-26T09:58:40.015Z,1732
2017-12-26T09:59:40.003Z,1736
2017-12-26T10:00:39.653Z,1708
2017-12-26T10:01:39.599Z,1728
2017-12-26T10:02:40.190Z,1752
2017-12-26T10:03:39.325Z,1748
2017-12-26T10:04:39.713Z,1752
2017-12-26T10:05:39.477Z,1744
2017-12-26T10:06:40.389Z,1740
2017-12-26T10:07:39.674Z,1740
2017-12-26T10:08:39.434Z,1728
2017-12-26T10:09:39.735Z,1724
2017-12-26T10:10:40.254Z,1724
2017-12-26T10:11:39.747Z,1724
2017-12-26T10:12:40.055Z,1736
2017-12-26T10:13:39.519Z,1744
2017-12-26T10:14:39.699Z,1768
2017-12-26T10:15:39.392Z,1776
2017-12-26T10:16:39.420Z,1780
2017-12-26T10:18:40.094Z,1804
2017-12-26T10:19:40.175Z,1800
2017-12-26T10:20:39.896Z,1796
2017-12-26T10:21:39.366Z,1804
2017-12-26T10:22:39.830Z,1808
2017-12-26T10:23:40.114Z,1820
2017-12-26T10:24:40.140Z,1832
2017-12-26T10:25:39.584Z,1836
2017-12-26T10:26:41.095Z,1820
2017-12-26T10:27:40.426Z,1820
2017-12-26T10:28:40.320Z,1820
2017-12-26T10:29:39.444Z,1824
2017-12-26T10:30:39.834Z,1820
2017-12-26T10:31:39.675Z,1820
2017-12-26T10:32:39.962Z,1824
2017-12-26T10:33:39.997Z,1820
2017-12-26T10:34:39.711Z,1828
2017-12-26T10:35:39.434Z,1824
2017-12-26T10:36:39.052Z,1820
2017-12-26T10:37:39.028Z,1816
2017-12-26T10:38:39.190Z,1812
2017-12-26T10:39:39.024Z,1812
2017-12-26T10:40:39.347Z,1816
2017-12-26T10:41:38.971Z,1816
2017-12-26T10:42:38.687Z,1812
2017-12-26T10:43:38.953Z,1816
2017-12-26T10:44:39.201Z,1820
2017-12-26T10:45:38.971Z,1820
2017-12-26T10:46:39.679Z,1816
2017-12-26T10:47:39.569Z,1820
2017-12-26T10:48:38.849Z,1820
2017-12-26T10:49:39.050Z,1820
2017-12-26T10:50:39.760Z,1820
2017-12-26T10:51:39.168Z,1824
2017-12-26T10:52:39.935Z,1820
2017-12-26T10:53:38.897Z,1820
2017-12-26T10:54:39.470Z,1824
2017-12-26T10:55:39.549Z,1820
2017-12-26T10:56:39.376Z,1824
2017-12-26T10:57:39.021Z,1824
2017-12-26T10:58:39.927Z,1824
2017-12-26T10:59:39.139Z,1824
2017-12-26T11:00:38.724Z,1824
2017-12-26T11:01:38.413Z,1832
2017-12-26T11:02:39.162Z,1828
2017-12-26T11:03:38.807Z,1832
2017-12-26T11:04:38.775Z,1832
2017-12-26T11:05:38.635Z,1832
2017-12-26T11:06:40.978Z,1836
2017-12-26T11:07:39.216Z,1840
2017-12-26T11:08:38.708Z,1840
2017-12-26T11:09:38.994Z,1848
2017-12-26T11:10:39.308Z,1844
2017-12-26T11:11:38.907Z,1844
2017-12-26T11:12:38.775Z,1840
2017-12-26T11:13:38.742Z,1832
2017-12-26T11:14:38.941Z,1832
2017-12-26T11:15:39.058Z,1824
2017-12-26T11:16:38.721Z,1824
2017-12-26T11:17:38.899Z,1820
2017-12-26T11:18:39.237Z,1820
2017-12-26T11:19:38.990Z,1820
2017-12-26T11:20:38.149Z,1812
2017-12-26T11:21:38.409Z,1808
2017-12-26T11:22:38.400Z,1804
2017-12-26T11:23:38.111Z,1804
2017-12-26T11:24:38.093Z,1796
2017-12-26T11:25:38.355Z,1800
2017-12-26T11:26:38.339Z,1808
2017-12-26T11:27:38.600Z,1804
2017-12-26T11:28:38.587Z,1804
2017-12-26T11:29:38.299Z,1796
2017-12-26T11:30:38.285Z,1800
2017-12-26T11:31:38.281Z,1796
2017-12-26T11:32:38.254Z,1796
2017-12-26T11:33:37.971Z,1796
2017-12-26T11:34:38.504Z,1792
2017-12-26T11:35:37.958Z,1792
2017-12-26T11:36:38.201Z,1796
2017-12-26T11:37:38.188Z,1796
2017-12-26T11:38:38.176Z,1800
2017-12-26T11:39:37.894Z,1800
2017-12-26T11:40:38.191Z,1800
2017-12-26T11:41:38.429Z,1796
2017-12-26T11:42:38.117Z,1804
2017-12-26T11:43:38.114Z,1808
2017-12-26T11:44:37.818Z,1800
2017-12-26T11:45:38.618Z,1676
2017-12-26T11:46:37.791Z,1628
2017-12-26T11:47:38.048Z,1772
2017-12-26T11:48:38.092Z,1764
2017-12-26T11:49:38.019Z,1752
2017-12-26T11:50:37.735Z,1788
2017-12-26T11:51:38.199Z,1772
2017-12-26T11:52:38.252Z,1828
2017-12-26T11:53:37.968Z,1680
2017-12-26T11:54:38.224Z,1712
2017-12-26T11:55:37.937Z,1648
2017-12-26T11:56:38.200Z,1712
2017-12-26T11:57:37.911Z,1928
2017-12-26T11:58:37.909Z,2500
2017-12-26T11:59:37.880Z,3148
2017-12-26T12:00:37.871Z,3020
2017-12-26T12:01:37.855Z,2956
2017-12-26T12:02:37.838Z,2668
2017-12-26T12:03:37.560Z,2552
2017-12-26T12:04:37.539Z,2816
2017-12-26T12:05:37.813Z,3388
2017-12-26T12:06:37.804Z,3620
2017-12-26T12:07:37.499Z,3536
2017-12-26T12:08:37.762Z,3552
2017-12-26T12:09:37.747Z,3288
2017-12-26T12:10:37.760Z,3120
2017-12-26T12:11:38.316Z,3196
2017-12-26T12:12:37.713Z,3320
2017-12-26T12:13:37.688Z,3140
2017-12-26T12:14:37.676Z,3272
2017-12-26T12:15:37.661Z,3232
2017-12-26T12:16:37.400Z,3124
2017-12-26T12:17:37.636Z,3148
2017-12-26T12:18:37.620Z,3376
2017-12-26T12:19:37.333Z,3296
2017-12-26T12:20:37.611Z,3328
2017-12-26T12:21:37.865Z,3284
2017-12-26T12:22:37.572Z,3440
2017-12-26T12:23:38.120Z,3340
2017-12-26T12:24:37.264Z,3264
2017-12-26T12:25:37.799Z,3328
2017-12-26T12:26:37.512Z,3228
2017-12-26T12:27:37.498Z,3212
2017-12-26T12:28:37.211Z,3176
2017-12-26T12:29:37.478Z,3296
2017-12-26T12:30:37.459Z,2984
2017-12-26T12:31:37.993Z,2812
2017-12-26T12:32:37.447Z,2776
2017-12-26T12:33:37.169Z,2656
2017-12-26T12:34:37.404Z,2556
2017-12-26T12:35:37.407Z,2380
2017-12-26T12:36:37.375Z,2224
2017-12-26T12:37:37.639Z,2016
2017-12-26T12:38:37.896Z,1956
2017-12-26T12:39:37.066Z,1784
2017-12-26T12:40:37.334Z,1604
2017-12-26T12:41:37.583Z,1484
2017-12-26T12:42:37.300Z,1480
2017-12-26T12:43:37.285Z,1808
2017-12-26T12:44:37.012Z,2072
2017-12-26T12:45:37.267Z,2232
2017-12-26T12:46:37.273Z,2280
2017-12-26T12:47:36.961Z,2656
2017-12-26T12:48:37.223Z,2644
2017-12-26T12:49:37.493Z,3068
2017-12-26T12:50:36.925Z,2888
2017-12-26T12:51:37.203Z,2180
2017-12-26T12:52:36.894Z,1968
2017-12-26T12:53:37.429Z,1928
2017-12-26T12:54:37.151Z,1872
2017-12-26T12:55:36.876Z,1892
2017-12-26T12:56:36.839Z,1900
2017-12-26T12:57:37.372Z,2044
2017-12-26T12:58:37.089Z,2172
2017-12-26T12:59:37.357Z,2064
2017-12-26T13:00:37.063Z,2004
2017-12-26T13:01:37.592Z,1820
2017-12-26T13:02:37.034Z,1736
2017-12-26T13:03:37.300Z,1692
2017-12-26T13:04:36.808Z,1668
2017-12-26T13:05:36.999Z,1644
2017-12-26T13:06:36.985Z,1628
2017-12-26T13:07:36.966Z,1620
2017-12-26T13:08:36.951Z,1624
2017-12-26T13:09:36.698Z,1640
2017-12-26T13:10:36.661Z,1640
2017-12-26T13:11:37.462Z,1628
2017-12-26T13:12:36.627Z,1616
2017-12-26T13:13:36.897Z,1612
2017-12-26T13:14:36.604Z,1608
2017-12-26T13:15:36.866Z,1612
2017-12-26T13:16:36.843Z,1624
2017-12-26T13:17:36.557Z,1644
2017-12-26T13:18:37.110Z,1684
2017-12-26T13:19:37.100Z,1792
2017-12-26T13:20:37.482Z,1776
2017-12-26T13:21:36.781Z,1796
2017-12-26T13:22:37.039Z,2324
2017-12-26T13:23:37.313Z,2580
2017-12-26T13:24:36.737Z,2708
2017-12-26T13:25:36.750Z,2652
2017-12-26T13:26:36.982Z,2308
2017-12-26T13:27:36.431Z,2232
2017-12-26T13:28:36.975Z,2048
2017-12-26T13:29:36.666Z,1976
2017-12-26T13:30:36.654Z,1908
2017-12-26T13:31:36.643Z,1980
2017-12-26T13:32:36.629Z,1824
2017-12-26T13:33:36.614Z,1832
2017-12-26T13:34:36.885Z,1744
2017-12-26T13:35:36.598Z,1584
2017-12-26T13:36:36.842Z,1460
2017-12-26T13:37:36.569Z,1464
2017-12-26T13:38:36.828Z,1284
2017-12-26T13:39:36.252Z,1332
2017-12-26T13:40:36.785Z,1324
2017-12-26T13:41:36.224Z,1364
2017-12-26T13:42:36.485Z,1048
2017-12-26T13:43:36.197Z,908
2017-12-26T13:44:36.454Z,1268
2017-12-26T13:45:36.466Z,1216
2017-12-26T13:46:36.709Z,988
2017-12-26T13:47:36.142Z,720
2017-12-26T13:48:36.410Z,756
2017-12-26T13:49:36.416Z,944
2017-12-26T13:50:36.124Z,1040
2017-12-26T13:51:36.092Z,1000
2017-12-26T13:52:36.361Z,1260
2017-12-26T13:53:36.062Z,1496
2017-12-26T13:54:36.046Z,1592
2017-12-26T13:55:36.312Z,1320
2017-12-26T13:56:36.568Z,1412
2017-12-26T13:57:36.009Z,1236
2017-12-26T13:58:35.995Z,1148
2017-12-26T13:59:35.980Z,1176
2017-12-26T14:00:35.968Z,908
2017-12-26T14:01:36.222Z,1056
2017-12-26T14:02:36.217Z,1068
2017-12-26T14:03:36.468Z,996